sensor_id;sensor_type;location;lat;lon;timestamp;P1;durP1;ratioP1;P2;durP2;ratioP2
60038;SDS011;45916;52.734;6.544;2023-12-04T00:01:15;48.38;;;31.73;;
60038;SDS011;45916;52.734;6.544;2023-12-04T00:03:42;50.22;;;31.88;;
60038;SDS011;45916;52.734;6.544;2023-12-04T00:06:09;52.15;;;34.40;;
60038;SDS011;45916;52.734;6.544;2023-12-04T00:08:36;46.30;;;30.35;;
60038;SDS011;45916;52.734;6.544;2023-12-04T00:11:02;44.92;;;30.88;;
60038;SDS011;45916;52.734;6.544;2023-12-04T00:13:29;49.08;;;31.52;;
60038;SDS011;45916;52.734;6.544;2023-12-04T00:15:55;45.35;;;32.78;;
60038;SDS011;45916;52.734;6.544;2023-12-04T00:18:21;50.92;;;32.85;;
60038;SDS011;45916;52.734;6.544;2023-12-04T00:20:47;50.25;;;32.75;;
60038;SDS011;45916;52.734;6.544;2023-12-04T00:23:13;49.40;;;33.30;;
60038;SDS011;45916;52.734;6.544;2023-12-04T00:25:38;47.63;;;29.13;;
60038;SDS011;45916;52.734;6.544;2023-12-04T00:28:04;44.72;;;29.15;;
60038;SDS011;45916;52.734;6.544;2023-12-04T00:30:30;50.13;;;32.55;;
60038;SDS011;45916;52.734;6.544;2023-12-04T00:32:56;48.22;;;29.75;;
60038;SDS011;45916;52.734;6.544;2023-12-04T00:35:21;48.55;;;34.25;;
60038;SDS011;45916;52.734;6.544;2023-12-04T00:37:47;46.20;;;32.65;;
60038;SDS011;45916;52.734;6.544;2023-12-04T00:40:12;47.45;;;33.72;;
60038;SDS011;45916;52.734;6.544;2023-12-04T00:42:38;47.05;;;30.85;;
60038;SDS011;45916;52.734;6.544;2023-12-04T00:45:04;49.78;;;32.78;;
60038;SDS011;45916;52.734;6.544;2023-12-04T00:47:30;46.40;;;29.13;;
60038;SDS011;45916;52.734;6.544;2023-12-04T00:49:56;49.95;;;34.33;;
60038;SDS011;45916;52.734;6.544;2023-12-04T00:52:21;40.60;;;28.88;;
60038;SDS011;45916;52.734;6.544;2023-12-04T00:54:47;53.05;;;33.63;;
60038;SDS011;45916;52.734;6.544;2023-12-04T00:57:12;47.17;;;32.58;;
60038;SDS011;45916;52.734;6.544;2023-12-04T00:59:38;48.92;;;33.05;;
60038;SDS011;45916;52.734;6.544;2023-12-04T01:02:04;53.88;;;33.65;;
60038;SDS011;45916;52.734;6.544;2023-12-04T01:04:31;51.47;;;31.40;;
60038;SDS011;45916;52.734;6.544;2023-12-04T01:06:57;49.22;;;30.95;;
60038;SDS011;45916;52.734;6.544;2023-12-04T01:09:23;50.55;;;33.90;;
60038;SDS011;45916;52.734;6.544;2023-12-04T01:11:58;42.67;;;29.98;;
60038;SDS011;45916;52.734;6.544;2023-12-04T01:14:24;50.95;;;34.53;;
60038;SDS011;45916;52.734;6.544;2023-12-04T01:16:49;51.58;;;33.65;;
60038;SDS011;45916;52.734;6.544;2023-12-04T01:19:15;49.90;;;32.85;;
60038;SDS011;45916;52.734;6.544;2023-12-04T01:21:41;47.28;;;31.15;;
60038;SDS011;45916;52.734;6.544;2023-12-04T01:24:07;49.88;;;31.75;;
60038;SDS011;45916;52.734;6.544;2023-12-04T01:26:33;51.78;;;33.28;;
60038;SDS011;45916;52.734;6.544;2023-12-04T01:28:59;47.00;;;31.92;;
60038;SDS011;45916;52.734;6.544;2023-12-04T01:31:24;48.17;;;31.33;;
60038;SDS011;45916;52.734;6.544;2023-12-04T01:33:50;51.10;;;35.05;;
60038;SDS011;45916;52.734;6.544;2023-12-04T01:36:16;48.90;;;33.20;;
60038;SDS011;45916;52.734;6.544;2023-12-04T01:38:41;49.20;;;32.10;;
60038;SDS011;45916;52.734;6.544;2023-12-04T01:41:07;45.28;;;32.08;;
60038;SDS011;45916;52.734;6.544;2023-12-04T01:43:33;44.42;;;31.88;;
60038;SDS011;45916;52.734;6.544;2023-12-04T01:46:00;47.85;;;29.80;;
60038;SDS011;45916;52.734;6.544;2023-12-04T01:48:26;44.75;;;30.05;;
60038;SDS011;45916;52.734;6.544;2023-12-04T01:50:53;49.05;;;31.60;;
60038;SDS011;45916;52.734;6.544;2023-12-04T01:53:19;45.53;;;30.27;;
60038;SDS011;45916;52.734;6.544;2023-12-04T01:55:45;45.60;;;30.67;;
60038;SDS011;45916;52.734;6.544;2023-12-04T01:58:11;45.25;;;31.33;;
60038;SDS011;45916;52.734;6.544;2023-12-04T02:00:37;42.35;;;28.77;;
60038;SDS011;45916;52.734;6.544;2023-12-04T02:03:03;40.75;;;28.17;;
60038;SDS011;45916;52.734;6.544;2023-12-04T02:05:29;43.85;;;27.88;;
60038;SDS011;45916;52.734;6.544;2023-12-04T02:07:56;41.08;;;27.58;;
60038;SDS011;45916;52.734;6.544;2023-12-04T02:10:22;39.80;;;27.45;;
60038;SDS011;45916;52.734;6.544;2023-12-04T02:12:49;40.25;;;25.20;;
60038;SDS011;45916;52.734;6.544;2023-12-04T02:15:15;42.90;;;27.77;;
60038;SDS011;45916;52.734;6.544;2023-12-04T02:17:42;41.08;;;25.35;;
60038;SDS011;45916;52.734;6.544;2023-12-04T02:20:09;39.03;;;26.98;;
60038;SDS011;45916;52.734;6.544;2023-12-04T02:22:37;43.45;;;28.75;;
60038;SDS011;45916;52.734;6.544;2023-12-04T02:25:03;37.15;;;24.83;;
60038;SDS011;45916;52.734;6.544;2023-12-04T02:27:49;40.75;;;27.42;;
60038;SDS011;45916;52.734;6.544;2023-12-04T02:30:18;39.83;;;26.02;;
60038;SDS011;45916;52.734;6.544;2023-12-04T02:32:47;39.72;;;27.48;;
60038;SDS011;45916;52.734;6.544;2023-12-04T02:35:14;43.70;;;28.05;;
60038;SDS011;45916;52.734;6.544;2023-12-04T02:37:41;36.72;;;23.65;;
60038;SDS011;45916;52.734;6.544;2023-12-04T02:40:08;36.20;;;25.77;;
60038;SDS011;45916;52.734;6.544;2023-12-04T02:42:36;41.00;;;26.23;;
60038;SDS011;45916;52.734;6.544;2023-12-04T02:45:01;39.05;;;25.08;;
60038;SDS011;45916;52.734;6.544;2023-12-04T02:47:27;39.30;;;24.85;;
60038;SDS011;45916;52.734;6.544;2023-12-04T02:49:53;38.35;;;27.33;;
60038;SDS011;45916;52.734;6.544;2023-12-04T02:52:18;42.85;;;26.70;;
60038;SDS011;45916;52.734;6.544;2023-12-04T02:54:44;41.53;;;27.52;;
60038;SDS011;45916;52.734;6.544;2023-12-04T02:57:10;42.53;;;26.42;;
60038;SDS011;45916;52.734;6.544;2023-12-04T02:59:35;41.28;;;26.35;;
60038;SDS011;45916;52.734;6.544;2023-12-04T03:02:01;40.53;;;28.20;;
60038;SDS011;45916;52.734;6.544;2023-12-04T03:04:30;42.22;;;25.88;;
60038;SDS011;45916;52.734;6.544;2023-12-04T03:06:56;38.78;;;25.23;;
60038;SDS011;45916;52.734;6.544;2023-12-04T03:09:21;37.85;;;25.70;;
60038;SDS011;45916;52.734;6.544;2023-12-04T03:11:47;38.00;;;27.75;;
60038;SDS011;45916;52.734;6.544;2023-12-04T03:14:13;39.28;;;25.92;;
60038;SDS011;45916;52.734;6.544;2023-12-04T03:16:39;36.60;;;26.35;;
60038;SDS011;45916;52.734;6.544;2023-12-04T03:19:05;42.85;;;28.35;;
60038;SDS011;45916;52.734;6.544;2023-12-04T03:21:30;43.20;;;26.08;;
60038;SDS011;45916;52.734;6.544;2023-12-04T03:23:56;38.78;;;24.95;;
60038;SDS011;45916;52.734;6.544;2023-12-04T03:26:22;40.88;;;25.77;;
60038;SDS011;45916;52.734;6.544;2023-12-04T03:28:48;36.25;;;25.05;;
60038;SDS011;45916;52.734;6.544;2023-12-04T03:31:13;37.53;;;25.52;;
60038;SDS011;45916;52.734;6.544;2023-12-04T03:33:39;37.58;;;27.02;;
60038;SDS011;45916;52.734;6.544;2023-12-04T03:36:05;37.47;;;26.27;;
60038;SDS011;45916;52.734;6.544;2023-12-04T03:38:31;37.00;;;26.67;;
60038;SDS011;45916;52.734;6.544;2023-12-04T03:40:56;35.58;;;24.25;;
60038;SDS011;45916;52.734;6.544;2023-12-04T03:43:22;37.88;;;24.83;;
60038;SDS011;45916;52.734;6.544;2023-12-04T03:45:48;35.83;;;24.75;;
60038;SDS011;45916;52.734;6.544;2023-12-04T03:48:13;37.40;;;24.65;;
60038;SDS011;45916;52.734;6.544;2023-12-04T03:50:39;37.83;;;24.75;;
60038;SDS011;45916;52.734;6.544;2023-12-04T03:53:05;41.50;;;27.10;;
60038;SDS011;45916;52.734;6.544;2023-12-04T03:55:30;39.58;;;23.77;;
60038;SDS011;45916;52.734;6.544;2023-12-04T03:57:56;31.98;;;22.95;;
60038;SDS011;45916;52.734;6.544;2023-12-04T04:00:22;32.65;;;22.23;;
60038;SDS011;45916;52.734;6.544;2023-12-04T04:02:48;40.58;;;25.60;;
60038;SDS011;45916;52.734;6.544;2023-12-04T04:05:15;35.95;;;24.48;;
60038;SDS011;45916;52.734;6.544;2023-12-04T04:07:40;35.13;;;24.60;;
60038;SDS011;45916;52.734;6.544;2023-12-04T04:10:07;37.88;;;23.60;;
60038;SDS011;45916;52.734;6.544;2023-12-04T04:12:33;38.42;;;23.52;;
60038;SDS011;45916;52.734;6.544;2023-12-04T04:14:59;35.35;;;23.52;;
60038;SDS011;45916;52.734;6.544;2023-12-04T04:17:25;36.30;;;25.00;;
60038;SDS011;45916;52.734;6.544;2023-12-04T04:19:54;33.35;;;23.00;;
60038;SDS011;45916;52.734;6.544;2023-12-04T04:22:20;36.17;;;23.40;;
60038;SDS011;45916;52.734;6.544;2023-12-04T04:24:47;32.92;;;22.40;;
60038;SDS011;45916;52.734;6.544;2023-12-04T04:27:13;33.35;;;22.48;;
60038;SDS011;45916;52.734;6.544;2023-12-04T04:29:39;35.05;;;21.58;;
60038;SDS011;45916;52.734;6.544;2023-12-04T04:32:05;32.78;;;22.88;;
60038;SDS011;45916;52.734;6.544;2023-12-04T04:34:31;32.72;;;23.10;;
60038;SDS011;45916;52.734;6.544;2023-12-04T04:36:56;31.15;;;20.92;;
60038;SDS011;45916;52.734;6.544;2023-12-04T04:39:22;32.45;;;21.63;;
60038;SDS011;45916;52.734;6.544;2023-12-04T04:41:48;32.30;;;22.83;;
60038;SDS011;45916;52.734;6.544;2023-12-04T04:44:14;32.10;;;21.80;;
60038;SDS011;45916;52.734;6.544;2023-12-04T04:46:39;29.75;;;21.52;;
60038;SDS011;45916;52.734;6.544;2023-12-04T04:49:05;30.63;;;20.40;;
60038;SDS011;45916;52.734;6.544;2023-12-04T04:51:32;28.52;;;20.67;;
60038;SDS011;45916;52.734;6.544;2023-12-04T04:53:59;30.00;;;21.60;;
60038;SDS011;45916;52.734;6.544;2023-12-04T04:56:25;28.52;;;19.63;;
60038;SDS011;45916;52.734;6.544;2023-12-04T04:58:50;29.40;;;20.38;;
60038;SDS011;45916;52.734;6.544;2023-12-04T05:01:16;34.50;;;22.65;;
60038;SDS011;45916;52.734;6.544;2023-12-04T05:03:42;31.10;;;21.90;;
60038;SDS011;45916;52.734;6.544;2023-12-04T05:06:08;29.90;;;19.30;;
60038;SDS011;45916;52.734;6.544;2023-12-04T05:08:34;29.73;;;19.08;;
60038;SDS011;45916;52.734;6.544;2023-12-04T05:10:59;27.85;;;18.45;;
60038;SDS011;45916;52.734;6.544;2023-12-04T05:13:25;26.55;;;19.67;;
60038;SDS011;45916;52.734;6.544;2023-12-04T05:15:51;28.00;;;18.88;;
60038;SDS011;45916;52.734;6.544;2023-12-04T05:18:16;28.60;;;19.38;;
60038;SDS011;45916;52.734;6.544;2023-12-04T05:20:42;31.40;;;18.95;;
60038;SDS011;45916;52.734;6.544;2023-12-04T05:23:08;29.20;;;19.50;;
60038;SDS011;45916;52.734;6.544;2023-12-04T05:25:33;28.67;;;19.77;;
60038;SDS011;45916;52.734;6.544;2023-12-04T05:27:59;30.02;;;18.90;;
60038;SDS011;45916;52.734;6.544;2023-12-04T05:30:24;28.25;;;18.65;;
60038;SDS011;45916;52.734;6.544;2023-12-04T05:32:50;26.80;;;18.35;;
60038;SDS011;45916;52.734;6.544;2023-12-04T05:35:16;26.65;;;19.42;;
60038;SDS011;45916;52.734;6.544;2023-12-04T05:37:42;28.13;;;18.23;;
60038;SDS011;45916;52.734;6.544;2023-12-04T05:40:08;24.80;;;18.65;;
60038;SDS011;45916;52.734;6.544;2023-12-04T05:42:36;26.00;;;17.58;;
60038;SDS011;45916;52.734;6.544;2023-12-04T05:45:01;27.67;;;18.42;;
60038;SDS011;45916;52.734;6.544;2023-12-04T05:47:28;22.88;;;16.42;;
60038;SDS011;45916;52.734;6.544;2023-12-04T05:49:53;22.90;;;17.83;;
60038;SDS011;45916;52.734;6.544;2023-12-04T05:52:19;26.13;;;17.92;;
60038;SDS011;45916;52.734;6.544;2023-12-04T05:54:45;26.25;;;18.55;;
60038;SDS011;45916;52.734;6.544;2023-12-04T05:57:11;26.13;;;18.85;;
60038;SDS011;45916;52.734;6.544;2023-12-04T05:59:37;26.35;;;17.13;;
60038;SDS011;45916;52.734;6.544;2023-12-04T06:02:03;27.58;;;18.55;;
60038;SDS011;45916;52.734;6.544;2023-12-04T06:04:29;23.52;;;17.40;;
60038;SDS011;45916;52.734;6.544;2023-12-04T06:06:54;26.05;;;17.75;;
60038;SDS011;45916;52.734;6.544;2023-12-04T06:09:20;24.23;;;17.38;;
60038;SDS011;45916;52.734;6.544;2023-12-04T06:11:46;25.25;;;17.23;;
60038;SDS011;45916;52.734;6.544;2023-12-04T06:14:11;25.50;;;17.90;;
60038;SDS011;45916;52.734;6.544;2023-12-04T06:16:37;26.55;;;18.63;;
60038;SDS011;45916;52.734;6.544;2023-12-04T06:19:03;23.45;;;16.83;;
60038;SDS011;45916;52.734;6.544;2023-12-04T06:21:31;26.05;;;17.42;;
60038;SDS011;45916;52.734;6.544;2023-12-04T06:23:57;25.63;;;17.95;;
60038;SDS011;45916;52.734;6.544;2023-12-04T06:26:23;26.65;;;18.23;;
60038;SDS011;45916;52.734;6.544;2023-12-04T06:28:49;24.80;;;18.42;;
60038;SDS011;45916;52.734;6.544;2023-12-04T06:31:15;25.90;;;17.13;;
60038;SDS011;45916;52.734;6.544;2023-12-04T06:33:41;26.42;;;17.73;;
60038;SDS011;45916;52.734;6.544;2023-12-04T06:36:08;21.55;;;16.02;;
60038;SDS011;45916;52.734;6.544;2023-12-04T06:38:36;22.92;;;16.65;;
60038;SDS011;45916;52.734;6.544;2023-12-04T06:41:05;20.77;;;15.55;;
60038;SDS011;45916;52.734;6.544;2023-12-04T06:43:31;24.00;;;17.13;;
60038;SDS011;45916;52.734;6.544;2023-12-04T06:45:58;25.45;;;16.80;;
60038;SDS011;45916;52.734;6.544;2023-12-04T06:48:24;23.92;;;17.45;;
60038;SDS011;45916;52.734;6.544;2023-12-04T06:50:50;20.70;;;16.10;;
60038;SDS011;45916;52.734;6.544;2023-12-04T06:53:16;22.67;;;17.13;;
60038;SDS011;45916;52.734;6.544;2023-12-04T06:55:41;24.15;;;15.45;;
60038;SDS011;45916;52.734;6.544;2023-12-04T06:58:07;22.20;;;16.02;;
60038;SDS011;45916;52.734;6.544;2023-12-04T07:00:33;22.13;;;15.18;;
60038;SDS011;45916;52.734;6.544;2023-12-04T07:02:58;21.85;;;15.05;;
60038;SDS011;45916;52.734;6.544;2023-12-04T07:05:24;20.17;;;15.48;;
60038;SDS011;45916;52.734;6.544;2023-12-04T07:07:49;23.38;;;15.50;;
60038;SDS011;45916;52.734;6.544;2023-12-04T07:10:15;23.42;;;16.05;;
60038;SDS011;45916;52.734;6.544;2023-12-04T07:12:41;21.02;;;14.48;;
60038;SDS011;45916;52.734;6.544;2023-12-04T07:15:08;20.50;;;14.70;;
60038;SDS011;45916;52.734;6.544;2023-12-04T07:17:35;22.58;;;15.43;;
60038;SDS011;45916;52.734;6.544;2023-12-04T07:20:04;21.52;;;14.63;;
60038;SDS011;45916;52.734;6.544;2023-12-04T07:22:34;20.42;;;14.30;;
60038;SDS011;45916;52.734;6.544;2023-12-04T07:24:59;20.65;;;14.45;;
60038;SDS011;45916;52.734;6.544;2023-12-04T07:27:25;20.38;;;13.52;;
60038;SDS011;45916;52.734;6.544;2023-12-04T07:29:51;22.85;;;15.38;;
60038;SDS011;45916;52.734;6.544;2023-12-04T07:32:17;19.52;;;12.75;;
60038;SDS011;45916;52.734;6.544;2023-12-04T07:34:45;17.98;;;14.05;;
60038;SDS011;45916;52.734;6.544;2023-12-04T07:37:11;17.92;;;12.57;;
60038;SDS011;45916;52.734;6.544;2023-12-04T07:39:36;17.02;;;12.32;;
60038;SDS011;45916;52.734;6.544;2023-12-04T07:42:02;16.38;;;12.10;;
60038;SDS011;45916;52.734;6.544;2023-12-04T07:44:28;15.40;;;10.73;;
60038;SDS011;45916;52.734;6.544;2023-12-04T07:46:55;19.05;;;13.25;;
60038;SDS011;45916;52.734;6.544;2023-12-04T07:49:20;17.60;;;12.45;;
60038;SDS011;45916;52.734;6.544;2023-12-04T07:51:46;18.05;;;12.73;;
60038;SDS011;45916;52.734;6.544;2023-12-04T07:54:12;15.35;;;10.95;;
60038;SDS011;45916;52.734;6.544;2023-12-04T07:56:37;16.77;;;11.80;;
60038;SDS011;45916;52.734;6.544;2023-12-04T07:59:03;15.15;;;12.50;;
60038;SDS011;45916;52.734;6.544;2023-12-04T08:01:28;16.40;;;12.20;;
60038;SDS011;45916;52.734;6.544;2023-12-04T08:03:54;16.90;;;11.63;;
60038;SDS011;45916;52.734;6.544;2023-12-04T08:06:20;16.65;;;12.50;;
60038;SDS011;45916;52.734;6.544;2023-12-04T08:08:46;17.98;;;12.00;;
60038;SDS011;45916;52.734;6.544;2023-12-04T08:11:11;17.23;;;12.10;;
60038;SDS011;45916;52.734;6.544;2023-12-04T08:13:38;17.17;;;11.88;;
60038;SDS011;45916;52.734;6.544;2023-12-04T08:16:04;16.20;;;11.60;;
60038;SDS011;45916;52.734;6.544;2023-12-04T08:18:37;15.98;;;11.25;;
60038;SDS011;45916;52.734;6.544;2023-12-04T08:21:03;16.60;;;11.18;;
60038;SDS011;45916;52.734;6.544;2023-12-04T08:23:29;14.93;;;12.18;;
60038;SDS011;45916;52.734;6.544;2023-12-04T08:25:54;17.20;;;12.07;;
60038;SDS011;45916;52.734;6.544;2023-12-04T08:28:20;18.15;;;11.45;;
60038;SDS011;45916;52.734;6.544;2023-12-04T08:30:46;14.48;;;10.82;;
60038;SDS011;45916;52.734;6.544;2023-12-04T08:33:12;15.63;;;11.30;;
60038;SDS011;45916;52.734;6.544;2023-12-04T08:35:38;15.98;;;10.77;;
60038;SDS011;45916;52.734;6.544;2023-12-04T08:38:04;14.35;;;10.98;;
60038;SDS011;45916;52.734;6.544;2023-12-04T08:40:30;15.77;;;11.40;;
60038;SDS011;45916;52.734;6.544;2023-12-04T08:42:55;14.93;;;12.18;;
60038;SDS011;45916;52.734;6.544;2023-12-04T08:45:21;18.98;;;12.43;;
60038;SDS011;45916;52.734;6.544;2023-12-04T08:47:46;16.25;;;11.60;;
60038;SDS011;45916;52.734;6.544;2023-12-04T08:50:13;16.55;;;12.05;;
60038;SDS011;45916;52.734;6.544;2023-12-04T08:52:39;15.38;;;11.13;;
60038;SDS011;45916;52.734;6.544;2023-12-04T08:55:06;14.90;;;11.15;;
60038;SDS011;45916;52.734;6.544;2023-12-04T08:57:32;16.15;;;11.95;;
60038;SDS011;45916;52.734;6.544;2023-12-04T08:59:58;16.92;;;12.23;;
60038;SDS011;45916;52.734;6.544;2023-12-04T09:02:24;15.93;;;11.13;;
60038;SDS011;45916;52.734;6.544;2023-12-04T09:04:50;16.13;;;11.52;;
60038;SDS011;45916;52.734;6.544;2023-12-04T09:07:15;17.58;;;11.52;;
60038;SDS011;45916;52.734;6.544;2023-12-04T09:09:41;15.35;;;11.38;;
60038;SDS011;45916;52.734;6.544;2023-12-04T09:12:07;16.13;;;11.02;;
60038;SDS011;45916;52.734;6.544;2023-12-04T09:14:34;16.85;;;11.32;;
60038;SDS011;45916;52.734;6.544;2023-12-04T09:16:59;17.08;;;11.77;;
60038;SDS011;45916;52.734;6.544;2023-12-04T09:19:25;15.95;;;10.82;;
60038;SDS011;45916;52.734;6.544;2023-12-04T09:21:51;14.77;;;10.25;;
60038;SDS011;45916;52.734;6.544;2023-12-04T09:24:16;14.90;;;10.27;;
60038;SDS011;45916;52.734;6.544;2023-12-04T09:26:42;17.02;;;12.43;;
60038;SDS011;45916;52.734;6.544;2023-12-04T09:29:10;15.35;;;10.85;;
60038;SDS011;45916;52.734;6.544;2023-12-04T09:31:36;15.18;;;10.93;;
60038;SDS011;45916;52.734;6.544;2023-12-04T09:34:02;14.98;;;10.63;;
60038;SDS011;45916;52.734;6.544;2023-12-04T09:36:28;16.13;;;11.98;;
60038;SDS011;45916;52.734;6.544;2023-12-04T09:38:54;16.05;;;11.20;;
60038;SDS011;45916;52.734;6.544;2023-12-04T09:41:20;16.65;;;11.80;;
60038;SDS011;45916;52.734;6.544;2023-12-04T09:43:46;18.13;;;11.25;;
60038;SDS011;45916;52.734;6.544;2023-12-04T09:46:13;16.30;;;11.13;;
60038;SDS011;45916;52.734;6.544;2023-12-04T09:48:41;14.07;;;10.27;;
60038;SDS011;45916;52.734;6.544;2023-12-04T09:51:08;15.90;;;10.30;;
60038;SDS011;45916;52.734;6.544;2023-12-04T09:53:35;16.30;;;11.02;;
60038;SDS011;45916;52.734;6.544;2023-12-04T09:56:02;15.25;;;9.85;;
60038;SDS011;45916;52.734;6.544;2023-12-04T09:58:29;20.60;;;10.82;;
60038;SDS011;45916;52.734;6.544;2023-12-04T10:00:58;12.85;;;10.18;;
60038;SDS011;45916;52.734;6.544;2023-12-04T10:03:26;18.08;;;12.82;;
60038;SDS011;45916;52.734;6.544;2023-12-04T10:05:53;13.32;;;9.70;;
60038;SDS011;45916;52.734;6.544;2023-12-04T10:08:19;15.13;;;10.48;;
60038;SDS011;45916;52.734;6.544;2023-12-04T10:10:45;16.52;;;11.55;;
60038;SDS011;45916;52.734;6.544;2023-12-04T10:13:10;12.70;;;9.65;;
60038;SDS011;45916;52.734;6.544;2023-12-04T10:15:55;14.25;;;9.98;;
60038;SDS011;45916;52.734;6.544;2023-12-04T10:18:27;13.88;;;9.65;;
60038;SDS011;45916;52.734;6.544;2023-12-04T10:20:57;14.23;;;9.77;;
60038;SDS011;45916;52.734;6.544;2023-12-04T10:23:39;17.13;;;11.32;;
60038;SDS011;45916;52.734;6.544;2023-12-04T10:26:07;13.82;;;9.98;;
60038;SDS011;45916;52.734;6.544;2023-12-04T10:28:34;13.05;;;9.77;;
60038;SDS011;45916;52.734;6.544;2023-12-04T10:31:00;13.90;;;9.90;;
60038;SDS011;45916;52.734;6.544;2023-12-04T10:33:26;15.25;;;10.63;;
60038;SDS011;45916;52.734;6.544;2023-12-04T10:35:54;11.85;;;9.27;;
60038;SDS011;45916;52.734;6.544;2023-12-04T10:38:22;12.93;;;9.60;;
60038;SDS011;45916;52.734;6.544;2023-12-04T10:40:48;14.15;;;9.43;;
60038;SDS011;45916;52.734;6.544;2023-12-04T10:43:17;14.23;;;10.68;;
60038;SDS011;45916;52.734;6.544;2023-12-04T10:45:45;13.20;;;9.98;;
60038;SDS011;45916;52.734;6.544;2023-12-04T10:48:12;13.98;;;9.98;;
60038;SDS011;45916;52.734;6.544;2023-12-04T10:50:39;14.40;;;10.18;;
60038;SDS011;45916;52.734;6.544;2023-12-04T10:53:16;13.55;;;10.10;;
60038;SDS011;45916;52.734;6.544;2023-12-04T10:55:42;15.85;;;10.65;;
60038;SDS011;45916;52.734;6.544;2023-12-04T10:58:10;14.18;;;9.90;;
60038;SDS011;45916;52.734;6.544;2023-12-04T11:00:55;13.82;;;9.75;;
60038;SDS011;45916;52.734;6.544;2023-12-04T11:03:31;13.10;;;10.70;;
60038;SDS011;45916;52.734;6.544;2023-12-04T11:06:01;14.02;;;9.60;;
60038;SDS011;45916;52.734;6.544;2023-12-04T11:08:32;13.30;;;10.00;;
60038;SDS011;45916;52.734;6.544;2023-12-04T11:11:04;14.15;;;9.88;;
60038;SDS011;45916;52.734;6.544;2023-12-04T11:13:34;13.88;;;10.00;;
60038;SDS011;45916;52.734;6.544;2023-12-04T11:19:00;14.27;;;10.45;;
60038;SDS011;45916;52.734;6.544;2023-12-04T11:21:31;13.48;;;9.93;;
60038;SDS011;45916;52.734;6.544;2023-12-04T11:23:59;13.73;;;10.67;;
60038;SDS011;45916;52.734;6.544;2023-12-04T11:26:25;12.63;;;9.68;;
60038;SDS011;45916;52.734;6.544;2023-12-04T11:28:53;13.30;;;9.30;;
60038;SDS011;45916;52.734;6.544;2023-12-04T11:31:19;14.38;;;10.30;;
60038;SDS011;45916;52.734;6.544;2023-12-04T11:33:45;14.25;;;10.48;;
60038;SDS011;45916;52.734;6.544;2023-12-04T11:36:11;15.98;;;11.25;;
60038;SDS011;45916;52.734;6.544;2023-12-04T11:38:38;13.65;;;10.75;;
60038;SDS011;45916;52.734;6.544;2023-12-04T11:41:20;14.98;;;10.52;;
60038;SDS011;45916;52.734;6.544;2023-12-04T11:43:47;14.95;;;10.77;;
60038;SDS011;45916;52.734;6.544;2023-12-04T11:46:14;14.52;;;10.80;;
60038;SDS011;45916;52.734;6.544;2023-12-04T11:48:48;14.73;;;10.93;;
60038;SDS011;45916;52.734;6.544;2023-12-04T11:54:08;13.38;;;9.48;;
60038;SDS011;45916;52.734;6.544;2023-12-04T11:56:34;12.75;;;9.88;;
60038;SDS011;45916;52.734;6.544;2023-12-04T11:59:06;13.10;;;9.90;;
60038;SDS011;45916;52.734;6.544;2023-12-04T12:01:36;13.57;;;10.50;;
60038;SDS011;45916;52.734;6.544;2023-12-04T12:04:11;14.07;;;10.85;;
60038;SDS011;45916;52.734;6.544;2023-12-04T12:06:36;15.02;;;10.80;;
60038;SDS011;45916;52.734;6.544;2023-12-04T12:09:03;13.45;;;9.90;;
60038;SDS011;45916;52.734;6.544;2023-12-04T12:11:29;13.98;;;10.35;;
60038;SDS011;45916;52.734;6.544;2023-12-04T12:13:55;13.00;;;9.70;;
60038;SDS011;45916;52.734;6.544;2023-12-04T12:16:21;14.20;;;10.63;;
60038;SDS011;45916;52.734;6.544;2023-12-04T12:18:46;12.13;;;9.40;;
60038;SDS011;45916;52.734;6.544;2023-12-04T12:21:12;13.50;;;10.50;;
60038;SDS011;45916;52.734;6.544;2023-12-04T12:23:39;16.00;;;10.52;;
60038;SDS011;45916;52.734;6.544;2023-12-04T12:26:05;13.20;;;10.07;;
60038;SDS011;45916;52.734;6.544;2023-12-04T12:28:31;12.50;;;9.85;;
60038;SDS011;45916;52.734;6.544;2023-12-04T12:31:00;11.63;;;10.30;;
60038;SDS011;45916;52.734;6.544;2023-12-04T12:33:29;14.50;;;10.60;;
60038;SDS011;45916;52.734;6.544;2023-12-04T12:35:55;15.70;;;10.35;;
60038;SDS011;45916;52.734;6.544;2023-12-04T12:38:22;13.25;;;9.55;;
60038;SDS011;45916;52.734;6.544;2023-12-04T12:40:48;12.23;;;9.50;;
60038;SDS011;45916;52.734;6.544;2023-12-04T12:43:13;11.60;;;8.85;;
60038;SDS011;45916;52.734;6.544;2023-12-04T12:45:42;13.30;;;9.73;;
60038;SDS011;45916;52.734;6.544;2023-12-04T12:48:15;12.90;;;9.32;;
60038;SDS011;45916;52.734;6.544;2023-12-04T12:50:42;13.23;;;10.38;;
60038;SDS011;45916;52.734;6.544;2023-12-04T12:53:10;13.00;;;9.38;;
60038;SDS011;45916;52.734;6.544;2023-12-04T12:55:40;14.88;;;10.23;;
60038;SDS011;45916;52.734;6.544;2023-12-04T12:58:07;13.73;;;10.13;;
60038;SDS011;45916;52.734;6.544;2023-12-04T13:00:34;14.50;;;10.80;;
60038;SDS011;45916;52.734;6.544;2023-12-04T13:03:00;14.02;;;9.90;;
60038;SDS011;45916;52.734;6.544;2023-12-04T13:05:27;13.25;;;10.00;;
60038;SDS011;45916;52.734;6.544;2023-12-04T13:07:52;12.68;;;10.32;;
60038;SDS011;45916;52.734;6.544;2023-12-04T13:10:20;14.55;;;10.40;;
60038;SDS011;45916;52.734;6.544;2023-12-04T13:12:46;15.40;;;10.50;;
60038;SDS011;45916;52.734;6.544;2023-12-04T13:15:17;14.80;;;11.05;;
60038;SDS011;45916;52.734;6.544;2023-12-04T13:17:43;14.23;;;10.93;;
60038;SDS011;45916;52.734;6.544;2023-12-04T13:20:09;16.95;;;11.07;;
60038;SDS011;45916;52.734;6.544;2023-12-04T13:22:38;16.70;;;11.45;;
60038;SDS011;45916;52.734;6.544;2023-12-04T13:25:04;15.95;;;11.43;;
60038;SDS011;45916;52.734;6.544;2023-12-04T13:27:32;14.88;;;11.10;;
60038;SDS011;45916;52.734;6.544;2023-12-04T13:29:58;15.00;;;10.65;;
60038;SDS011;45916;52.734;6.544;2023-12-04T13:32:24;16.13;;;12.25;;
60038;SDS011;45916;52.734;6.544;2023-12-04T13:34:50;16.15;;;11.45;;
60038;SDS011;45916;52.734;6.544;2023-12-04T13:37:15;13.52;;;10.85;;
60038;SDS011;45916;52.734;6.544;2023-12-04T13:39:41;14.77;;;12.38;;
60038;SDS011;45916;52.734;6.544;2023-12-04T13:42:16;17.25;;;12.55;;
60038;SDS011;45916;52.734;6.544;2023-12-04T13:45:01;15.37;;;10.57;;
60038;SDS011;45916;52.734;6.544;2023-12-04T13:47:27;15.18;;;11.50;;
60038;SDS011;45916;52.734;6.544;2023-12-04T13:49:53;17.45;;;11.90;;
60038;SDS011;45916;52.734;6.544;2023-12-04T13:52:20;18.95;;;12.50;;
60038;SDS011;45916;52.734;6.544;2023-12-04T13:54:48;14.20;;;11.52;;
60038;SDS011;45916;52.734;6.544;2023-12-04T13:57:23;16.42;;;11.95;;
60038;SDS011;45916;52.734;6.544;2023-12-04T14:00:12;17.02;;;11.35;;
60038;SDS011;45916;52.734;6.544;2023-12-04T14:02:38;18.35;;;12.43;;
60038;SDS011;45916;52.734;6.544;2023-12-04T14:05:18;16.05;;;11.57;;
60038;SDS011;45916;52.734;6.544;2023-12-04T14:07:55;16.23;;;11.05;;
60038;SDS011;45916;52.734;6.544;2023-12-04T14:10:31;15.15;;;11.40;;
60038;SDS011;45916;52.734;6.544;2023-12-04T14:13:21;17.85;;;11.07;;
60038;SDS011;45916;52.734;6.544;2023-12-04T14:16:02;15.77;;;11.50;;
60038;SDS011;45916;52.734;6.544;2023-12-04T14:18:32;14.43;;;10.63;;
60038;SDS011;45916;52.734;6.544;2023-12-04T14:20:57;14.07;;;10.77;;
60038;SDS011;45916;52.734;6.544;2023-12-04T14:23:23;15.52;;;11.95;;
60038;SDS011;45916;52.734;6.544;2023-12-04T14:25:49;16.60;;;11.70;;
60038;SDS011;45916;52.734;6.544;2023-12-04T14:28:15;15.02;;;10.82;;